KHTL/HTL METAR and TAF weather

Enter ICAO airport designator
Station Type Date Time Source
KHTL METAR 2021/07/26 12:53 UTC NOAA

KHTL 261253Z AUTO 25005KT 10SM CLR 21/16 A3000 RMK AO2 SLP154 T02110156


Station Type Date Time Source
KHTL Decoded METAR 2021/07/26 12:53 UTC NOAA

ROSCOMMON COUNTY AIRPORT, MI, United States (KHTL) 44-21N 084-40W 351M
Jul 26, 2021 - 08:53 AM EDT / 2021.07.26 1253 UTC
Wind: from the WSW (250 degrees) at 6 MPH (5 KT):0
Visibility: 10 mile(s):0
Sky conditions: clear
Temperature: 70.0 F (21.1 C)
Dew Point: 60.1 F (15.6 C)
Relative Humidity: 70%
Pressure (altimeter): 30 in. Hg (1015 hPa)
ob: KHTL 261253Z AUTO 25005KT 10SM CLR 21/16 A3000 RMK AO2 SLP154 T02110156
cycle: 13

Station Type Date Time Source
KHTL TAF UTC NOAA

Error!

Example: see airport list